Time;durP1;ratioP1;P1;durP2;ratioP2;P2;SDS_P1;SDS_P2;PMS_P1;PMS_P2;Temp;Humidity;BMP_temperature;BMP_pressure;BME280_temperature;BME280_humidity;BME280_pressure;Samples;Min_cycle;Max_cycle;Signal;HPM_P1;HPM_P2
2023/05/03 00:01:36;;;;;;;;;;;;;;;11.82;72.44;102385.31;7361874;19;19923;-61
2023/05/03 00:04:03;;;;;;;;;;;;;;;11.81;72.01;102394.19;7363932;19;20337;-61
2023/05/03 00:06:30;;;;;;;;;;;;;;;11.78;71.24;102392.66;7362070;19;19923;-62
2023/05/03 00:08:57;;;;;;;;;;;;;;;11.78;71.89;102390.00;7360729;19;20432;-62
2023/05/03 00:11:24;;;;;;;;;;;;;;;11.81;71.67;102391.56;7361384;19;19953;-61
2023/05/03 00:13:51;;;;;;;;;;;;;;;11.76;71.61;102394.56;7362310;19;19919;-61
2023/05/03 00:16:18;;;;;;;;;;;;;;;11.77;71.26;102390.13;7359018;19;19919;-62
2023/05/03 00:18:47;;;;;;;;;;;;;;;11.78;71.73;102391.81;7362185;19;20618;-62
2023/05/03 00:21:15;;;;;;;;;;;;;;;11.80;71.36;102388.06;7361362;19;20278;-62
2023/05/03 00:23:42;;;;;;;;;;;;;;;11.77;71.08;102388.31;7362305;19;19926;-61
2023/05/03 00:26:09;;;;;;;;;;;;;;;11.74;70.84;102383.28;7361076;19;19945;-62
2023/05/03 00:28:36;;;;;;;;;;;;;;;11.71;70.96;102388.78;7362425;19;20396;-61
2023/05/03 00:31:07;;;;;;;;;;;;;;;11.67;71.40;102383.88;7356458;19;19943;-61
2023/05/03 00:33:34;;;;;;;;;;;;;;;11.63;71.25;102385.06;7357494;19;19918;-62
2023/05/03 00:36:10;;;;;;;;;;;;;;;11.63;70.62;102383.25;7360072;19;19940;-62
2023/05/03 00:38:38;;;;;;;;;;;;;;;11.61;70.94;102381.72;7360102;19;19947;-63
2023/05/03 00:41:05;;;;;;;;;;;;;;;11.61;70.88;102376.44;7361400;19;19967;-62
2023/05/03 00:43:34;;;;;;;;;;;;;;;11.59;70.60;102377.38;7360558;19;20230;-66
2023/05/03 00:46:02;;;;;;;;;;;;;;;11.59;70.39;102379.19;7358538;19;19922;-62
2023/05/03 00:48:41;;;;;;;;;;;;;;;11.51;70.26;102378.97;7361409;19;19922;-62
2023/05/03 00:51:11;;;;;;;;;;;;;;;11.52;70.33;102381.50;7360891;19;19922;-62
2023/05/03 00:53:39;;;;;;;;;;;;;;;11.52;70.14;102372.75;7358395;19;19918;-62
2023/05/03 00:56:06;;;;;;;;;;;;;;;11.55;71.47;102385.66;7359524;19;19995;-62
2023/05/03 00:58:35;;;;;;;;;;;;;;;11.53;70.86;102383.13;7360329;19;19926;-62
2023/05/03 01:01:02;;;;;;;;;;;;;;;11.51;71.13;102377.16;7361261;19;19926;-62
2023/05/03 01:03:35;;;;;;;;;;;;;;;11.52;70.93;102376.22;7358486;19;21613;-62
2023/05/03 01:06:11;;;;;;;;;;;;;;;11.54;71.24;102374.28;7361541;19;19991;-61
2023/05/03 01:08:43;;;;;;;;;;;;;;;11.52;70.92;102368.31;7361244;19;19939;-63
2023/05/03 01:11:15;;;;;;;;;;;;;;;11.49;70.88;102370.31;7362274;19;20718;-62
2023/05/03 01:13:46;;;;;;;;;;;;;;;11.49;70.67;102367.69;7359505;19;19945;-61
2023/05/03 01:16:22;;;;;;;;;;;;;;;11.50;71.77;102372.00;7358583;19;20180;-62
2023/05/03 01:18:51;;;;;;;;;;;;;;;11.49;70.78;102363.25;7362334;19;19978;-62
2023/05/03 01:21:18;;;;;;;;;;;;;;;11.51;71.09;102369.25;7358894;19;19923;-62
2023/05/03 01:23:50;;;;;;;;;;;;;;;11.50;70.48;102366.75;7363164;19;19922;-62
2023/05/03 01:26:19;;;;;;;;;;;;;;;11.49;70.36;102365.91;7360777;19;19911;-61
2023/05/03 01:28:46;;;;;;;;;;;;;;;11.46;70.54;102355.59;7361093;19;19919;-62
2023/05/03 01:31:17;;;;;;;;;;;;;;;11.46;70.58;102349.50;7357759;19;19931;-61
2023/05/03 01:33:48;;;;;;;;;;;;;;;11.46;70.43;102350.34;7358908;19;19937;-62
2023/05/03 01:36:18;;;;;;;;;;;;;;;11.43;70.40;102349.72;7360255;19;19915;-61
2023/05/03 01:38:46;;;;;;;;;;;;;;;11.42;70.76;102354.19;7360997;19;20508;-62
2023/05/03 01:41:15;;;;;;;;;;;;;;;11.44;70.34;102362.78;7358130;19;19915;-61
2023/05/03 01:43:42;;;;;;;;;;;;;;;11.45;71.00;102350.44;7360312;19;19915;-62
2023/05/03 01:46:10;;;;;;;;;;;;;;;11.44;70.63;102348.75;7358042;19;20795;-62
2023/05/03 01:48:37;;;;;;;;;;;;;;;11.41;70.33;102341.94;7360241;19;19923;-63
2023/05/03 01:51:04;;;;;;;;;;;;;;;11.40;71.16;102350.81;7359555;19;19926;-63
2023/05/03 01:53:31;;;;;;;;;;;;;;;11.41;71.37;102347.22;7357189;19;20211;-61
2023/05/03 01:55:58;;;;;;;;;;;;;;;11.44;71.08;102346.13;7360073;19;19919;-61
2023/05/03 01:58:25;;;;;;;;;;;;;;;11.40;71.25;102335.00;7359460;19;19982;-62
2023/05/03 02:00:52;;;;;;;;;;;;;;;11.41;71.04;102346.38;7357392;19;20246;-62
2023/05/03 02:03:19;;;;;;;;;;;;;;;11.42;70.62;102337.53;7358494;19;19927;-63
2023/05/03 02:05:47;;;;;;;;;;;;;;;11.42;70.70;102334.88;7358464;19;19956;-62
2023/05/03 02:08:15;;;;;;;;;;;;;;;11.44;72.62;102348.75;7358715;19;19923;-62
2023/05/03 02:10:43;;;;;;;;;;;;;;;11.45;71.74;102343.38;7357774;19;19978;-61
2023/05/03 02:13:10;;;;;;;;;;;;;;;11.46;71.16;102354.75;7358180;19;20151;-61
2023/05/03 02:15:37;;;;;;;;;;;;;;;11.48;72.88;102344.91;7354851;19;19919;-62
2023/05/03 02:18:04;;;;;;;;;;;;;;;11.49;71.85;102351.88;7358985;19;19964;-62
2023/05/03 02:20:34;;;;;;;;;;;;;;;11.49;71.57;102354.50;7358598;19;19926;-63
2023/05/03 02:23:00;;;;;;;;;;;;;;;11.50;72.60;102356.19;7358314;19;19976;-61
2023/05/03 02:25:27;;;;;;;;;;;;;;;11.46;73.52;102357.41;7357089;19;19919;-63
2023/05/03 02:27:54;;;;;;;;;;;;;;;11.46;73.92;102357.41;7358263;19;20559;-62
2023/05/03 02:30:21;;;;;;;;;;;;;;;11.42;74.14;102356.81;7355858;19;20701;-62
2023/05/03 02:32:48;;;;;;;;;;;;;;;11.41;74.38;102349.03;7356092;19;20042;-62
2023/05/03 02:35:15;;;;;;;;;;;;;;;11.36;75.81;102354.66;7360163;19;19918;-61
2023/05/03 02:37:42;;;;;;;;;;;;;;;11.35;76.83;102350.34;7357081;19;19919;-62
2023/05/03 02:40:09;;;;;;;;;;;;;;;11.30;75.22;102347.22;7360486;19;19923;-61
2023/05/03 02:42:36;;;;;;;;;;;;;;;11.25;76.02;102352.00;7359361;19;19914;-63
2023/05/03 02:45:03;;;;;;;;;;;;;;;11.24;76.34;102345.06;7355711;19;19926;-61
2023/05/03 02:47:30;;;;;;;;;;;;;;;11.23;76.45;102347.81;7356761;19;20924;-61
2023/05/03 02:49:57;;;;;;;;;;;;;;;11.20;77.01;102353.31;7357825;19;20272;-62
2023/05/03 02:52:24;;;;;;;;;;;;;;;11.15;77.24;102351.03;7356088;19;20258;-64
2023/05/03 02:54:51;;;;;;;;;;;;;;;11.11;76.39;102347.81;7355331;19;20293;-62
2023/05/03 02:57:18;;;;;;;;;;;;;;;11.12;77.52;102344.19;7357528;19;19935;-62
2023/05/03 02:59:44;;;;;;;;;;;;;;;11.05;77.00;102345.66;7353985;19;19933;-61
2023/05/03 03:02:11;;;;;;;;;;;;;;;11.01;77.13;102349.47;7356875;19;20703;-63
2023/05/03 03:04:38;;;;;;;;;;;;;;;10.97;77.97;102339.31;7358411;19;19943;-62
2023/05/03 03:07:05;;;;;;;;;;;;;;;10.92;77.27;102338.81;7356215;19;19922;-61
2023/05/03 03:09:32;;;;;;;;;;;;;;;10.88;78.35;102337.34;7357551;19;19918;-63
2023/05/03 03:12:01;;;;;;;;;;;;;;;10.86;78.21;102334.84;7356769;19;20253;-63
2023/05/03 03:14:29;;;;;;;;;;;;;;;10.85;77.55;102332.34;7352901;19;19929;-62
2023/05/03 03:16:57;;;;;;;;;;;;;;;10.81;77.79;102331.75;7354972;19;19998;-62
2023/05/03 03:19:23;;;;;;;;;;;;;;;10.78;77.94;102326.69;7359404;19;21109;-64
2023/05/03 03:21:50;;;;;;;;;;;;;;;10.70;77.87;102323.81;7358801;19;19914;-63
2023/05/03 03:24:17;;;;;;;;;;;;;;;10.69;77.94;102330.03;7364894;19;19922;-62
2023/05/03 03:26:44;;;;;;;;;;;;;;;10.66;77.95;102314.47;7361426;19;20737;-61
2023/05/03 03:29:13;;;;;;;;;;;;;;;10.60;78.46;102322.84;7360985;19;20253;-62
2023/05/03 03:31:40;;;;;;;;;;;;;;;10.59;78.64;102314.09;7364764;19;19922;-62
2023/05/03 03:34:07;;;;;;;;;;;;;;;10.58;78.81;102311.56;7359534;19;19986;-61
2023/05/03 03:36:35;;;;;;;;;;;;;;;10.59;78.93;102297.47;7358256;19;19923;-63
2023/05/03 03:39:03;;;;;;;;;;;;;;;10.59;78.76;102297.47;7362688;19;19918;-62
2023/05/03 03:41:31;;;;;;;;;;;;;;;10.59;78.02;102300.09;7360920;19;19953;-62
2023/05/03 03:43:58;;;;;;;;;;;;;;;10.47;78.57;102296.59;7363485;19;19915;-62
2023/05/03 03:46:25;;;;;;;;;;;;;;;10.45;79.04;102298.50;7361606;19;19945;-62
2023/05/03 03:48:52;;;;;;;;;;;;;;;10.45;78.81;102288.00;7363509;19;20003;-62
2023/05/03 03:51:19;;;;;;;;;;;;;;;10.43;79.12;102286.41;7362931;19;19926;-63
2023/05/03 03:53:46;;;;;;;;;;;;;;;10.43;78.71;102282.00;7360302;19;19923;-61
2023/05/03 03:56:12;;;;;;;;;;;;;;;10.46;79.24;102284.41;7363718;19;19958;-63
2023/05/03 03:58:39;;;;;;;;;;;;;;;10.49;79.71;102283.31;7362262;19;19953;-62
2023/05/03 04:01:06;;;;;;;;;;;;;;;10.48;78.79;102282.47;7362723;19;20038;-62
2023/05/03 04:03:33;;;;;;;;;;;;;;;10.49;79.08;102278.91;7363026;19;21642;-63
2023/05/03 04:06:00;;;;;;;;;;;;;;;10.49;78.40;102271.00;7363573;19;19922;-61
2023/05/03 04:08:27;;;;;;;;;;;;;;;10.49;78.53;102278.06;7361209;19;19914;-62
2023/05/03 04:10:54;;;;;;;;;;;;;;;10.53;78.94;102271.59;7364291;19;21767;-63
2023/05/03 04:13:21;;;;;;;;;;;;;;;10.55;78.32;102267.06;7360333;19;19926;-62
2023/05/03 04:15:48;;;;;;;;;;;;;;;10.56;78.57;102266.97;7360450;19;19922;-62
2023/05/03 04:18:15;;;;;;;;;;;;;;;10.55;78.75;102262.66;7360307;19;19923;-62
2023/05/03 04:20:42;;;;;;;;;;;;;;;10.55;78.16;102262.66;7362267;19;20555;-62
2023/05/03 04:23:09;;;;;;;;;;;;;;;10.59;78.32;102263.25;7361100;19;19929;-61
2023/05/03 04:25:37;;;;;;;;;;;;;;;10.58;78.01;102258.94;7363590;19;20542;-62
2023/05/03 04:28:05;;;;;;;;;;;;;;;10.57;77.78;102263.34;7361824;19;19926;-62
2023/05/03 04:30:33;;;;;;;;;;;;;;;10.57;78.04;102263.34;7358441;19;19951;-64
2023/05/03 04:33:00;;;;;;;;;;;;;;;10.57;77.94;102268.63;7359528;19;19918;-64
2023/05/03 04:35:27;;;;;;;;;;;;;;;10.57;78.19;102265.97;7360078;19;19921;-63
2023/05/03 04:37:54;;;;;;;;;;;;;;;10.58;78.15;102272.09;7355374;19;19954;-61
2023/05/03 04:40:21;;;;;;;;;;;;;;;10.59;77.78;102271.13;7359472;19;19982;-63
2023/05/03 04:42:48;;;;;;;;;;;;;;;10.60;78.16;102276.28;7361332;19;20595;-62
2023/05/03 04:45:15;;;;;;;;;;;;;;;10.57;77.86;102273.88;7358981;19;19947;-63
2023/05/03 04:47:42;;;;;;;;;;;;;;;10.60;77.48;102278.09;7360964;19;19961;-61
2023/05/03 04:50:09;;;;;;;;;;;;;;;10.58;77.73;102267.66;7361868;19;19923;-61
2023/05/03 04:52:37;;;;;;;;;;;;;;;10.57;77.53;102263.34;7360854;19;19923;-62
2023/05/03 04:55:04;;;;;;;;;;;;;;;10.60;78.46;102265.78;7358615;19;19975;-62
2023/05/03 04:57:32;;;;;;;;;;;;;;;10.59;78.32;102265.88;7362151;19;20270;-64
2023/05/03 04:59:59;;;;;;;;;;;;;;;10.60;77.15;102264.94;7356702;19;19919;-62
2023/05/03 05:02:27;;;;;;;;;;;;;;;10.58;77.81;102269.47;7361051;19;19945;-61
2023/05/03 05:04:54;;;;;;;;;;;;;;;10.59;77.87;102281.66;7358703;19;21110;-62
2023/05/03 05:07:21;;;;;;;;;;;;;;;10.53;78.06;102277.72;7360974;19;19919;-62
2023/05/03 05:09:47;;;;;;;;;;;;;;;10.55;77.79;102281.06;7360333;19;19939;-63
2023/05/03 05:12:14;;;;;;;;;;;;;;;10.60;77.70;102285.97;7361290;19;20574;-62
2023/05/03 05:14:41;;;;;;;;;;;;;;;10.56;77.26;102288.03;7357398;19;19923;-61
2023/05/03 05:17:08;;;;;;;;;;;;;;;10.58;77.41;102286.09;7360422;19;19947;-62
2023/05/03 05:19:35;;;;;;;;;;;;;;;10.56;77.84;102282.75;7360854;19;19939;-63
2023/05/03 05:22:02;;;;;;;;;;;;;;;10.55;77.12;102291.59;7359410;19;20235;-63
2023/05/03 05:24:29;;;;;;;;;;;;;;;10.56;76.89;102292.44;7357279;19;19934;-62
2023/05/03 05:26:56;;;;;;;;;;;;;;;10.61;76.78;102299.03;7359672;19;19923;-61
2023/05/03 05:29:23;;;;;;;;;;;;;;;10.62;76.98;102294.59;7359821;19;20494;-62
2023/05/03 05:31:51;;;;;;;;;;;;;;;10.61;76.96;102304.31;7359570;19;19922;-61
2023/05/03 05:34:18;;;;;;;;;;;;;;;10.61;76.34;102301.66;7356471;19;20297;-62
2023/05/03 05:36:45;;;;;;;;;;;;;;;10.63;76.01;102305.00;7359892;19;19944;-62
2023/05/03 05:39:12;;;;;;;;;;;;;;;10.63;76.47;102304.16;7357576;19;19915;-63
2023/05/03 05:41:39;;;;;;;;;;;;;;;10.64;75.91;102303.22;7360089;19;19929;-62
2023/05/03 05:44:06;;;;;;;;;;;;;;;10.59;76.52;102306.19;7354983;19;19914;-62
2023/05/03 05:46:33;;;;;;;;;;;;;;;10.58;76.67;102314.19;7358865;19;19923;-63
2023/05/03 05:49:00;;;;;;;;;;;;;;;10.57;76.36;102323.88;7358404;19;19922;-63
2023/05/03 05:51:29;;;;;;;;;;;;;;;10.62;77.00;102305.94;7359340;19;19922;-62
2023/05/03 05:53:56;;;;;;;;;;;;;;;10.68;76.69;102318.66;7358928;19;20400;-65
2023/05/03 05:56:23;;;;;;;;;;;;;;;10.72;76.20;102312.19;7359537;19;19918;-66
2023/05/03 05:58:50;;;;;;;;;;;;;;;10.70;76.24;102318.53;7359976;19;20448;-65
2023/05/03 06:01:17;;;;;;;;;;;;;;;10.76;75.71;102315.47;7356868;19;19914;-65
2023/05/03 06:03:44;;;;;;;;;;;;;;;10.85;75.97;102313.91;7358467;19;19919;-64
2023/05/03 06:06:11;;;;;;;;;;;;;;;10.87;75.38;102320.72;7358679;19;20532;-66
2023/05/03 06:08:38;;;;;;;;;;;;;;;10.92;75.39;102320.38;7355980;19;20306;-66
2023/05/03 06:11:05;;;;;;;;;;;;;;;11.00;76.48;102320.63;7359258;19;19921;-64
2023/05/03 06:13:33;;;;;;;;;;;;;;;11.07;74.79;102321.84;7357881;19;19986;-66
2023/05/03 06:16:01;;;;;;;;;;;;;;;11.14;74.77;102328.28;7354146;19;19918;-65
2023/05/03 06:18:28;;;;;;;;;;;;;;;11.15;74.03;102330.81;7355793;19;20278;-66
2023/05/03 06:20:56;;;;;;;;;;;;;;;11.34;74.32;102324.94;7359670;19;19927;-66
2023/05/03 06:23:23;;;;;;;;;;;;;;;11.65;73.69;102325.97;7356488;19;19922;-66
2023/05/03 06:25:50;;;;;;;;;;;;;;;11.94;72.77;102326.28;7353817;19;19915;-65
2023/05/03 06:28:17;;;;;;;;;;;;;;;12.15;71.33;102324.53;7357177;19;19915;-65
2023/05/03 06:30:48;;;;;;;;;;;;;;;12.26;69.72;102327.16;7357605;19;19922;-65
2023/05/03 06:33:15;;;;;;;;;;;;;;;12.50;69.11;102318.13;7355366;19;19995;-67
2023/05/03 06:35:42;;;;;;;;;;;;;;;12.83;68.06;102320.59;7356641;19;19926;-65
2023/05/03 06:38:10;;;;;;;;;;;;;;;12.93;67.29;102321.50;7356190;19;19919;-66
2023/05/03 06:40:40;;;;;;;;;;;;;;;12.95;67.74;102321.38;7357744;19;19955;-67
2023/05/03 06:43:07;;;;;;;;;;;;;;;12.84;67.48;102323.13;7357025;19;20273;-64
2023/05/03 06:45:34;;;;;;;;;;;;;;;12.80;67.63;102313.75;7357367;19;19978;-66
2023/05/03 06:48:01;;;;;;;;;;;;;;;12.80;67.89;102307.63;7357621;19;19933;-64
2023/05/03 06:50:28;;;;;;;;;;;;;;;12.88;67.82;102309.63;7360648;19;20294;-65
2023/05/03 06:52:55;;;;;;;;;;;;;;;13.01;67.76;102310.25;7355717;19;20140;-65
2023/05/03 06:55:23;;;;;;;;;;;;;;;13.12;67.60;102310.19;7357742;19;19958;-64
2023/05/03 06:57:51;;;;;;;;;;;;;;;13.11;67.10;102309.34;7368055;19;21864;-65
2023/05/03 07:00:19;;;;;;;;;;;;;;;13.15;67.32;102309.94;7363490;19;19944;-66
2023/05/03 07:02:47;;;;;;;;;;;;;;;13.22;67.64;102305.78;7363633;19;19940;-65
2023/05/03 07:05:14;;;;;;;;;;;;;;;13.25;67.59;102295.81;7366383;19;20020;-64
2023/05/03 07:07:41;;;;;;;;;;;;;;;13.37;67.19;102296.53;7365558;19;19919;-66
2023/05/03 07:10:08;;;;;;;;;;;;;;;13.54;65.93;102293.25;7366390;19;20285;-65
2023/05/03 07:12:36;;;;;;;;;;;;;;;13.62;65.91;102296.03;7367313;19;20304;-67
2023/05/03 07:15:03;;;;;;;;;;;;;;;13.60;66.25;102295.34;7361896;19;20516;-68
2023/05/03 07:17:30;;;;;;;;;;;;;;;13.66;66.00;102286.84;7365188;19;19922;-66
2023/05/03 07:19:57;;;;;;;;;;;;;;;13.71;66.37;102291.75;7361324;19;20445;-64
2023/05/03 07:22:26;;;;;;;;;;;;;;;13.79;65.95;102293.69;7364304;19;20279;-65
2023/05/03 07:24:53;;;;;;;;;;;;;;;13.98;64.82;102291.91;7364512;19;20389;-66
2023/05/03 07:27:20;;;;;;;;;;;;;;;13.95;64.63;102280.75;7360637;19;19919;-64
2023/05/03 07:29:47;;;;;;;;;;;;;;;13.90;64.53;102296.22;7363024;19;20361;-65
2023/05/03 07:32:15;;;;;;;;;;;;;;;13.82;64.94;102293.41;7362848;19;19998;-66
2023/05/03 07:34:42;;;;;;;;;;;;;;;13.72;65.42;102293.41;7360713;19;19939;-66
2023/05/03 07:37:10;;;;;;;;;;;;;;;13.86;65.23;102305.41;7361436;19;19983;-65
2023/05/03 07:39:38;;;;;;;;;;;;;;;13.85;65.06;102296.63;7363918;19;19953;-66
2023/05/03 07:42:05;;;;;;;;;;;;;;;13.95;64.84;102292.19;7362587;19;20682;-65
2023/05/03 07:44:32;;;;;;;;;;;;;;;14.01;64.11;102290.81;7359382;19;20303;-66
2023/05/03 07:47:00;;;;;;;;;;;;;;;14.05;64.08;102290.38;7363974;19;19914;-66
2023/05/03 07:49:27;;;;;;;;;;;;;;;14.13;64.37;102279.91;7362027;19;20386;-64
2023/05/03 07:51:54;;;;;;;;;;;;;;;14.86;62.16;102298.78;7308564;19;19919;-65
2023/05/03 07:54:22;;;;;;;;;;;;;;;15.03;61.09;102299.84;7354857;19;20599;-66
2023/05/03 07:56:50;;;;;;;;;;;;;;;15.08;60.97;102302.91;7355079;19;19982;-65
2023/05/03 07:59:19;;;;;;;;;;;;;;;15.56;60.26;102303.53;7358327;19;19978;-66
2023/05/03 08:01:47;;;;;;;;;;;;;;;15.72;58.67;102297.56;7360670;19;19931;-66
2023/05/03 08:04:14;;;;;;;;;;;;;;;15.55;58.54;102299.19;7341082;19;20260;-65
2023/05/03 08:06:41;;;;;;;;;;;;;;;15.27;60.02;102292.22;7352981;19;21585;-67
2023/05/03 08:09:10;;;;;;;;;;;;;;;14.90;60.49;102298.34;7354627;19;19955;-65
2023/05/03 08:11:37;;;;;;;;;;;;;;;14.70;60.95;102294.09;7355122;19;20916;-69
2023/05/03 08:14:08;;;;;;;;;;;;;;;14.64;61.61;102289.34;7355533;19;19933;-65
2023/05/03 08:16:35;;;;;;;;;;;;;;;14.68;61.95;102292.56;7356380;19;20300;-65
2023/05/03 08:19:03;;;;;;;;;;;;;;;14.72;61.83;102288.66;7354413;19;19910;-66
2023/05/03 08:21:32;;;;;;;;;;;;;;;14.87;61.77;102290.72;7355900;19;19926;-64
2023/05/03 08:23:59;;;;;;;;;;;;;;;14.90;61.82;102293.06;7354510;19;20614;-65
2023/05/03 08:26:28;;;;;;;;;;;;;;;14.91;62.04;102289.44;7350363;19;19919;-65
2023/05/03 08:28:56;;;;;;;;;;;;;;;14.87;62.23;102282.75;7356027;19;19927;-66
2023/05/03 08:31:23;;;;;;;;;;;;;;;14.92;62.41;102282.31;7354223;19;20019;-65
2023/05/03 08:33:50;;;;;;;;;;;;;;;14.86;62.30;102274.94;7356732;19;19925;-66
2023/05/03 08:36:18;;;;;;;;;;;;;;;14.76;62.04;102280.28;7354201;19;19922;-67
2023/05/03 08:38:45;;;;;;;;;;;;;;;14.68;62.09;102279.34;7356203;19;20728;-64
2023/05/03 08:41:17;;;;;;;;;;;;;;;14.62;61.91;102296.63;7357184;19;19930;-68
2023/05/03 08:43:45;;;;;;;;;;;;;;;14.61;62.08;102288.81;7353390;19;19964;-66
2023/05/03 08:46:13;;;;;;;;;;;;;;;14.72;61.68;102293.97;7352673;19;19949;-65
2023/05/03 08:48:42;;;;;;;;;;;;;;;14.68;61.85;102282.78;7352673;19;19978;-65
2023/05/03 08:51:09;;;;;;;;;;;;;;;14.62;61.18;102275.44;7358778;19;20264;-65
2023/05/03 08:53:36;;;;;;;;;;;;;;;14.54;61.66;102270.00;7351756;19;20432;-65
2023/05/03 08:56:09;;;;;;;;;;;;;;;14.52;61.58;102267.53;7355028;19;19933;-65
2023/05/03 08:58:37;;;;;;;;;;;;;;;14.56;62.43;102270.72;7356973;19;19929;-65
2023/05/03 09:01:05;;;;;;;;;;;;;;;14.64;61.97;102269.97;7353956;19;19923;-65
2023/05/03 09:03:33;;;;;;;;;;;;;;;14.75;62.39;102275.94;7355016;19;19931;-65
2023/05/03 09:06:02;;;;;;;;;;;;;;;14.91;60.54;102272.69;7353113;19;19930;-65
2023/05/03 09:08:41;;;;;;;;;;;;;;;15.04;59.72;102277.66;7353702;19;20534;-65
2023/05/03 09:11:19;;;;;;;;;;;;;;;15.22;58.93;102281.22;7352434;19;20309;-65
2023/05/03 09:13:46;;;;;;;;;;;;;;;15.41;58.55;102278.44;7353751;19;19923;-65
2023/05/03 09:16:30;;;;;;;;;;;;;;;15.36;56.91;102273.59;7348295;19;20362;-65
2023/05/03 09:19:03;;;;;;;;;;;;;;;15.21;56.87;102279.53;7363634;19;19978;-68
2023/05/03 09:21:30;;;;;;;;;;;;;;;15.21;57.25;102276.88;7355724;19;19919;-65
2023/05/03 09:23:58;;;;;;;;;;;;;;;15.19;57.06;102277.03;7353801;19;19922;-66
2023/05/03 09:26:34;;;;;;;;;;;;;;;15.24;56.71;102271.28;7350854;19;19926;-66
2023/05/03 09:29:03;;;;;;;;;;;;;;;15.08;56.64;102273.75;7351015;19;20353;-65
2023/05/03 09:31:31;;;;;;;;;;;;;;;15.04;57.16;102269.69;7355402;19;20539;-66
2023/05/03 09:33:59;;;;;;;;;;;;;;;15.02;57.51;102272.50;7350814;19;20006;-66
2023/05/03 09:36:26;;;;;;;;;;;;;;;14.94;57.70;102267.91;7350393;19;20722;-64
2023/05/03 09:38:54;;;;;;;;;;;;;;;14.89;57.16;102269.34;7354179;19;21777;-66
2023/05/03 09:41:25;;;;;;;;;;;;;;;14.83;56.42;102281.34;7354097;19;20535;-66
2023/05/03 09:43:54;;;;;;;;;;;;;;;14.70;57.11;102266.75;7354032;19;19921;-65
2023/05/03 09:46:24;;;;;;;;;;;;;;;14.81;57.98;102264.78;7353979;19;20181;-66
2023/05/03 09:48:54;;;;;;;;;;;;;;;14.93;58.54;102263.59;7351223;19;19915;-66
2023/05/03 09:51:21;;;;;;;;;;;;;;;15.06;57.14;102263.28;7356431;19;19923;-66
2023/05/03 09:53:49;;;;;;;;;;;;;;;15.19;56.93;102253.16;7350837;19;19974;-65
2023/05/03 09:56:19;;;;;;;;;;;;;;;15.29;56.74;102269.00;7351729;19;19919;-66
2023/05/03 09:58:46;;;;;;;;;;;;;;;15.43;56.76;102255.28;7353136;19;19979;-65
2023/05/03 10:01:15;;;;;;;;;;;;;;;15.52;56.19;102264.19;7351290;19;20014;-65
2023/05/03 10:03:43;;;;;;;;;;;;;;;15.60;56.17;102251.81;7352912;19;21461;-66
2023/05/03 10:06:20;;;;;;;;;;;;;;;15.74;56.58;102253.13;7350027;19;19922;-66
2023/05/03 10:08:51;;;;;;;;;;;;;;;15.85;55.36;102266.16;7354968;19;20808;-65
2023/05/03 10:11:18;;;;;;;;;;;;;;;15.96;54.68;102257.13;7353590;19;19910;-65
2023/05/03 10:13:45;;;;;;;;;;;;;;;16.03;54.69;102266.19;7353847;19;20717;-66
2023/05/03 10:16:16;;;;;;;;;;;;;;;16.07;54.11;102265.72;7349415;19;19923;-66
2023/05/03 10:18:46;;;;;;;;;;;;;;;15.95;53.14;102258.97;7356111;19;19918;-65
2023/05/03 10:21:17;;;;;;;;;;;;;;;15.65;53.63;102256.69;7352818;19;19927;-66
2023/05/03 10:23:53;;;;;;;;;;;;;;;15.57;52.73;102254.78;7355109;19;19919;-66
2023/05/03 10:26:21;;;;;;;;;;;;;;;15.49;53.67;102249.34;7350912;19;20336;-66
2023/05/03 10:28:48;;;;;;;;;;;;;;;15.44;54.08;102248.97;7352000;19;19929;-66
2023/05/03 10:31:25;;;;;;;;;;;;;;;15.45;54.02;102241.84;7354604;19;19926;-66
2023/05/03 10:33:52;;;;;;;;;;;;;;;15.52;54.50;102243.78;7358928;19;19919;-66
2023/05/03 10:36:19;;;;;;;;;;;;;;;15.60;53.61;102251.81;7356718;19;19926;-65
2023/05/03 10:38:46;;;;;;;;;;;;;;;15.73;53.63;102248.81;7359161;19;19947;-65
2023/05/03 10:41:23;;;;;;;;;;;;;;;15.81;53.47;102240.91;7361928;19;19954;-67
2023/05/03 10:43:50;;;;;;;;;;;;;;;15.56;53.03;102239.00;7359564;19;19943;-65
2023/05/03 10:46:26;;;;;;;;;;;;;;;15.65;53.60;102224.84;7355807;19;19923;-66
2023/05/03 10:49:03;;;;;;;;;;;;;;;15.60;53.12;102224.44;7358258;19;19923;-66
2023/05/03 10:51:35;;;;;;;;;;;;;;;15.62;52.33;102217.19;7361254;19;20049;-66
2023/05/03 10:54:03;;;;;;;;;;;;;;;15.66;52.91;102218.53;7354185;19;19951;-65
2023/05/03 10:56:30;;;;;;;;;;;;;;;15.63;53.43;102214.38;7353798;19;20662;-65
2023/05/03 10:58:57;;;;;;;;;;;;;;;15.76;52.98;102214.00;7359578;19;19915;-65
2023/05/03 11:01:26;;;;;;;;;;;;;;;15.84;53.05;102206.13;7358931;19;19934;-66
2023/05/03 11:04:03;;;;;;;;;;;;;;;15.91;52.38;102215.13;7358215;19;19919;-65
2023/05/03 11:06:33;;;;;;;;;;;;;;;15.93;52.07;102204.34;7356663;19;19939;-65
2023/05/03 11:09:01;;;;;;;;;;;;;;;16.01;51.91;102207.06;7358670;19;19911;-66
2023/05/03 11:11:28;;;;;;;;;;;;;;;16.01;52.63;102207.91;7352658;19;19926;-66
2023/05/03 11:13:56;;;;;;;;;;;;;;;16.06;52.13;102200.31;7345696;19;19927;-65
2023/05/03 11:16:24;;;;;;;;;;;;;;;16.08;52.01;102193.03;7348457;19;21443;-66
2023/05/03 11:18:52;;;;;;;;;;;;;;;16.07;51.66;102194.00;7337812;19;19918;-66
2023/05/03 11:21:20;;;;;;;;;;;;;;;16.10;51.36;102206.16;7355302;19;19923;-65
2023/05/03 11:23:47;;;;;;;;;;;;;;;16.11;51.28;102183.91;7355999;19;20238;-66
2023/05/03 11:26:24;;;;;;;;;;;;;;;16.18;51.29;102182.31;7360691;19;19986;-64
2023/05/03 11:28:52;;;;;;;;;;;;;;;16.29;50.76;102181.22;7348030;19;20173;-65
2023/05/03 11:31:20;;;;;;;;;;;;;;;16.34;50.61;102184.25;7356606;19;19915;-66
2023/05/03 11:33:48;;;;;;;;;;;;;;;16.39;50.60;102180.13;7354225;19;19926;-65
2023/05/03 11:36:15;;;;;;;;;;;;;;;16.42;50.56;102186.94;7356424;19;19907;-65
2023/05/03 11:38:42;;;;;;;;;;;;;;;16.42;48.74;102177.13;7356581;19;19926;-66
2023/05/03 11:41:13;;;;;;;;;;;;;;;16.45;49.90;102174.19;7359136;19;19926;-66
2023/05/03 11:43:41;;;;;;;;;;;;;;;16.53;50.02;102173.38;7354514;19;20421;-67
2023/05/03 11:46:08;;;;;;;;;;;;;;;16.50;49.57;102163.06;7354576;19;19922;-67
2023/05/03 11:48:37;;;;;;;;;;;;;;;16.44;49.71;102164.53;7356577;19;19919;-65
2023/05/03 11:51:06;;;;;;;;;;;;;;;16.43;49.34;102162.03;7361524;19;19922;-66
2023/05/03 11:53:38;;;;;;;;;;;;;;;16.46;49.60;102162.53;7360745;19;19922;-66
2023/05/03 11:56:17;;;;;;;;;;;;;;;16.43;49.26;102162.03;7358937;19;19919;-65
2023/05/03 11:58:48;;;;;;;;;;;;;;;16.39;48.70;102150.91;7360966;19;19925;-65
2023/05/03 12:01:15;;;;;;;;;;;;;;;16.47;48.30;102145.63;7358481;19;20361;-66
2023/05/03 12:03:42;;;;;;;;;;;;;;;16.50;48.30;102140.00;7361317;19;20657;-67
2023/05/03 12:06:11;;;;;;;;;;;;;;;16.47;48.43;102132.31;7360849;19;19933;-66
2023/05/03 12:08:39;;;;;;;;;;;;;;;16.40;47.94;102125.16;7360623;19;19919;-66
2023/05/03 12:11:10;;;;;;;;;;;;;;;16.44;48.62;102127.34;7362455;19;19994;-65
2023/05/03 12:13:40;;;;;;;;;;;;;;;16.44;48.18;102114.06;7361229;19;19915;-66
2023/05/03 12:16:09;;;;;;;;;;;;;;;16.46;48.42;102111.22;7357762;19;19919;-66
2023/05/03 12:18:48;;;;;;;;;;;;;;;16.49;48.07;102116.22;7359057;19;19930;-65
2023/05/03 12:21:17;;;;;;;;;;;;;;;16.48;48.37;102111.91;7363570;19;19922;-67
2023/05/03 12:23:50;;;;;;;;;;;;;;;16.47;48.82;102112.88;7354850;19;19930;-66
2023/05/03 12:26:21;;;;;;;;;;;;;;;16.48;49.13;102112.75;7358908;19;19918;-66
2023/05/03 12:28:48;;;;;;;;;;;;;;;16.53;48.72;102096.31;7362386;19;19980;-66
2023/05/03 12:31:17;;;;;;;;;;;;;;;16.55;48.48;102105.81;7356284;19;19923;-66
2023/05/03 12:33:45;;;;;;;;;;;;;;;16.65;48.27;102103.06;7361242;19;20358;-67
2023/05/03 12:36:33;;;;;;;;;;;;;;;16.70;47.77;102094.59;7362681;19;19921;-66
2023/05/03 12:39:03;;;;;;;;;;;;;;;16.74;48.10;102106.56;7362615;19;19930;-66
2023/05/03 12:41:35;;;;;;;;;;;;;;;16.77;48.24;102093.75;7362722;19;19935;-65